Time;durP1;ratioP1;P1;durP2;ratioP2;P2;SDS_P1;SDS_P2;PMS_P1;PMS_P2;Temp;Humidity;BMP_temperature;BMP_pressure;BME280_temperature;BME280_humidity;BME280_pressure;Samples;Min_cycle;Max_cycle;Signal;HPM_P1;HPM_P2
2022/07/29 00:01:52;;;;;;;1.90;0.98;;;23.10;99.90;;;;;;4229125;28;20217;-76
2022/07/29 00:03:54;;;;;;;1.67;0.98;;;23.10;99.90;;;;;;4229745;28;20217;-76
2022/07/29 00:05:56;;;;;;;3.13;1.20;;;23.00;99.90;;;;;;4229793;28;20244;-76
2022/07/29 00:07:58;;;;;;;2.67;1.30;;;23.00;99.90;;;;;;4229512;28;20213;-76
2022/07/29 00:10:02;;;;;;;2.15;1.27;;;23.00;99.90;;;;;;4229653;28;20670;-76
2022/07/29 00:12:05;;;;;;;1.23;0.95;;;23.00;99.90;;;;;;4229644;28;20210;-76
2022/07/29 00:14:08;;;;;;;3.00;1.10;;;23.00;99.90;;;;;;4229107;28;20623;-76
2022/07/29 00:16:10;;;;;;;1.83;1.20;;;23.00;99.90;;;;;;4229923;28;20741;-76
2022/07/29 00:18:12;;;;;;;1.10;1.00;;;23.00;99.90;;;;;;4229794;28;20324;-76
2022/07/29 00:20:14;;;;;;;2.03;1.00;;;23.00;99.90;;;;;;4229258;28;20233;-76
2022/07/29 00:22:17;;;;;;;2.53;1.10;;;23.00;99.90;;;;;;4229553;28;20255;-76
2022/07/29 00:24:19;;;;;;;1.75;1.20;;;23.00;99.90;;;;;;4229467;28;20263;-76
2022/07/29 00:26:24;;;;;;;1.50;1.23;;;23.00;99.90;;;;;;4229300;28;20217;-76
2022/07/29 00:28:26;;;;;;;2.15;1.25;;;23.10;99.90;;;;;;4229604;28;20233;-76
2022/07/29 00:30:28;;;;;;;1.52;1.00;;;23.00;99.90;;;;;;4229613;28;20555;-76
2022/07/29 00:32:30;;;;;;;1.55;1.00;;;23.00;99.90;;;;;;4229644;28;20209;-76
2022/07/29 00:36:52;;;;;;;2.13;1.17;;;23.00;99.90;;;;;;4229812;28;20594;-76
2022/07/29 00:38:55;;;;;;;2.22;1.13;;;23.00;99.90;;;;;;4229286;28;20686;-76
2022/07/29 00:40:57;;;;;;;1.67;1.00;;;23.00;99.90;;;;;;4229368;28;20234;-76
2022/07/29 00:43:01;;;;;;;1.98;1.20;;;23.00;99.90;;;;;;4229012;28;20238;-76
2022/07/29 00:45:04;;;;;;;1.92;1.33;;;23.00;99.90;;;;;;4229301;28;20662;-76
2022/07/29 00:47:07;;;;;;;1.20;1.10;;;23.00;99.90;;;;;;4229071;28;20217;-76
2022/07/29 00:49:09;;;;;;;2.97;1.08;;;23.00;99.90;;;;;;4229270;28;20214;-76
2022/07/29 00:51:13;;;;;;;1.70;1.10;;;23.00;99.90;;;;;;4229578;28;20263;-76
2022/07/29 00:53:16;;;;;;;1.38;1.10;;;22.90;99.90;;;;;;4229331;28;20377;-76
2022/07/29 00:55:19;;;;;;;3.90;1.25;;;22.90;99.90;;;;;;4229481;28;20598;-76
2022/07/29 00:57:21;;;;;;;1.90;1.20;;;23.00;99.90;;;;;;4229372;28;20221;-76
2022/07/29 00:59:25;;;;;;;2.38;1.17;;;22.90;99.90;;;;;;4228955;28;20214;-76
2022/07/29 01:01:28;;;;;;;1.67;1.20;;;23.00;99.90;;;;;;4228787;28;20237;-76
2022/07/29 01:03:30;;;;;;;2.28;1.00;;;23.00;99.90;;;;;;4229109;28;20262;-76
2022/07/29 01:05:33;;;;;;;1.98;1.25;;;22.90;99.90;;;;;;4229005;28;20243;-76
2022/07/29 01:07:37;;;;;;;2.08;1.13;;;22.90;99.90;;;;;;4229060;28;20209;-76
2022/07/29 01:09:41;;;;;;;1.88;0.82;;;22.90;99.90;;;;;;4229015;28;20218;-76
2022/07/29 01:11:44;;;;;;;1.90;1.10;;;23.00;99.90;;;;;;4229195;28;20730;-76
2022/07/29 01:13:48;;;;;;;2.22;1.10;;;22.90;99.90;;;;;;4231095;28;20213;-76
2022/07/29 01:15:57;;;;;;;1.50;1.20;;;22.90;99.90;;;;;;4232074;28;20735;-76
2022/07/29 01:18:06;;;;;;;1.77;1.00;;;22.90;99.90;;;;;;4232136;28;20222;-76
2022/07/29 01:20:14;;;;;;;2.00;0.80;;;22.90;99.90;;;;;;4232037;28;20221;-76
2022/07/29 01:22:28;;;;;;;1.05;0.90;;;22.90;99.90;;;;;;4232230;28;20258;-76
2022/07/29 01:24:50;;;;;;;2.17;1.10;;;22.90;99.90;;;;;;4231928;28;20217;-76
2022/07/29 01:26:58;;;;;;;1.15;1.05;;;22.90;99.90;;;;;;4232070;28;20357;-76
2022/07/29 01:29:05;;;;;;;2.25;1.20;;;22.90;99.90;;;;;;4231901;28;20213;-76
2022/07/29 01:31:10;;;;;;;1.92;1.20;;;22.90;99.90;;;;;;4231892;28;20251;-76
2022/07/29 01:35:39;;;;;;;1.75;1.00;;;22.90;99.90;;;;;;4231316;28;20258;-76
2022/07/29 01:37:46;;;;;;;3.67;1.40;;;22.90;99.90;;;;;;4232127;28;20214;-76
2022/07/29 01:39:51;;;;;;;1.30;1.20;;;22.90;99.90;;;;;;4231812;28;20564;-76
2022/07/29 01:42:02;;;;;;;4.28;1.10;;;22.90;99.90;;;;;;4231620;28;20229;-76
2022/07/29 01:44:15;;;;;;;4.70;1.42;;;22.80;99.90;;;;;;4231644;28;20209;-76
2022/07/29 01:46:25;;;;;;;2.25;1.02;;;22.90;99.90;;;;;;4231752;28;20613;-76
2022/07/29 01:48:32;;;;;;;1.63;0.80;;;22.90;99.90;;;;;;4231446;28;20618;-76
2022/07/29 01:50:38;;;;;;;2.50;1.45;;;22.90;99.90;;;;;;4231269;28;20213;-76
2022/07/29 01:52:57;;;;;;;1.33;1.10;;;22.90;99.90;;;;;;4231468;28;20632;-76
2022/07/29 01:55:05;;;;;;;1.63;0.98;;;22.90;99.90;;;;;;4231278;28;20266;-76
2022/07/29 01:57:10;;;;;;;2.08;1.00;;;22.90;99.90;;;;;;4231145;28;20255;-76
2022/07/29 01:59:14;;;;;;;1.40;1.00;;;22.90;99.90;;;;;;4231276;28;20255;-76
2022/07/29 02:01:18;;;;;;;1.23;1.00;;;22.80;99.90;;;;;;4231128;28;20277;-76
2022/07/29 02:03:22;;;;;;;2.20;1.15;;;22.90;99.90;;;;;;4231081;28;20274;-76
2022/07/29 02:05:28;;;;;;;2.03;0.95;;;22.80;99.90;;;;;;4231122;28;20266;-76
2022/07/29 02:07:33;;;;;;;1.30;1.00;;;22.80;99.90;;;;;;4231418;28;20259;-76
2022/07/29 02:09:38;;;;;;;2.65;1.00;;;22.80;99.90;;;;;;4231407;28;20626;-76
2022/07/29 02:11:44;;;;;;;1.67;1.02;;;22.80;99.90;;;;;;4231255;28;20227;-76
2022/07/29 02:13:48;;;;;;;1.20;1.10;;;22.80;99.90;;;;;;4231222;28;20707;-76
2022/07/29 02:15:53;;;;;;;2.17;1.10;;;22.80;99.90;;;;;;4231318;28;20259;-76
2022/07/29 02:17:59;;;;;;;1.88;1.08;;;22.80;99.90;;;;;;4231418;28;20269;-76
2022/07/29 02:20:04;;;;;;;1.63;1.02;;;22.80;99.90;;;;;;4231326;28;20214;-76
2022/07/29 02:22:07;;;;;;;2.05;1.00;;;22.80;99.90;;;;;;4230894;28;20283;-76
2022/07/29 02:24:13;;;;;;;1.35;1.10;;;22.80;99.90;;;;;;4230944;28;20266;-76
2022/07/29 02:26:17;;;;;;;1.45;1.10;;;22.80;99.90;;;;;;4230726;28;20611;-76
2022/07/29 02:28:21;;;;;;;1.48;0.80;;;22.80;99.90;;;;;;4231054;28;20217;-76
2022/07/29 02:30:24;;;;;;;1.08;0.98;;;22.80;99.90;;;;;;4231069;28;20236;-76
2022/07/29 02:32:29;;;;;;;1.48;1.00;;;22.80;99.90;;;;;;4230756;28;20614;-76
2022/07/29 02:34:33;;;;;;;1.08;0.90;;;22.80;99.90;;;;;;4230750;28;20226;-76
2022/07/29 02:36:36;;;;;;;1.88;1.13;;;22.80;99.90;;;;;;4230432;28;20259;-76
2022/07/29 02:38:50;;;;;;;1.75;0.95;;;22.80;99.90;;;;;;4231090;28;20633;-76
2022/07/29 02:40:55;;;;;;;1.30;1.10;;;22.80;99.90;;;;;;4230597;28;20258;-76
2022/07/29 02:42:58;;;;;;;2.45;1.20;;;22.80;99.90;;;;;;4230409;28;20233;-76
2022/07/29 02:45:00;;;;;;;1.30;0.98;;;22.80;99.90;;;;;;4230467;28;20223;-76
2022/07/29 02:47:11;;;;;;;1.48;1.00;;;22.80;99.90;;;;;;4230802;28;20213;-76
2022/07/29 02:49:20;;;;;;;1.35;1.00;;;22.80;99.90;;;;;;4230660;28;20598;-76
2022/07/29 02:51:41;;;;;;;1.60;1.13;;;22.80;99.90;;;;;;4230719;28;20657;-76
2022/07/29 02:53:49;;;;;;;1.77;1.02;;;22.80;99.90;;;;;;4230694;28;20217;-76
2022/07/29 02:55:56;;;;;;;1.85;1.20;;;22.80;99.90;;;;;;4230390;28;20266;-76
2022/07/29 02:58:01;;;;;;;1.10;1.00;;;22.80;99.90;;;;;;4230616;28;20243;-76
2022/07/29 03:00:08;;;;;;;2.22;1.13;;;22.80;99.90;;;;;;4230584;28;20214;-76
2022/07/29 03:02:11;;;;;;;2.80;1.00;;;22.70;99.90;;;;;;4230312;28;20613;-76
2022/07/29 03:04:16;;;;;;;3.53;1.10;;;22.70;99.90;;;;;;4230698;28;20239;-76
2022/07/29 03:06:20;;;;;;;1.35;1.00;;;22.70;99.90;;;;;;4230139;28;20213;-76
2022/07/29 03:08:23;;;;;;;1.55;1.10;;;22.70;99.90;;;;;;4230406;28;20217;-76
2022/07/29 03:10:27;;;;;;;1.73;1.23;;;22.70;99.90;;;;;;4230523;28;20281;-76
2022/07/29 03:12:30;;;;;;;1.05;0.90;;;22.70;99.90;;;;;;4230485;28;20209;-76
2022/07/29 03:14:33;;;;;;;1.73;1.00;;;22.70;99.90;;;;;;4229932;28;20266;-76
2022/07/29 03:16:36;;;;;;;2.00;0.80;;;22.70;99.90;;;;;;4229791;28;20263;-76
2022/07/29 03:18:39;;;;;;;2.22;1.20;;;22.70;99.90;;;;;;4230067;28;20222;-76
2022/07/29 03:20:43;;;;;;;1.52;1.02;;;22.70;99.90;;;;;;4229987;28;20218;-76
2022/07/29 03:22:46;;;;;;;1.63;1.10;;;22.70;99.90;;;;;;4230043;28;20270;-76
2022/07/29 03:24:49;;;;;;;1.73;1.10;;;22.70;99.90;;;;;;4230389;28;20218;-76
2022/07/29 03:26:51;;;;;;;1.92;1.05;;;22.70;99.90;;;;;;4229957;28;20213;-76
2022/07/29 03:28:53;;;;;;;2.25;1.08;;;22.70;99.90;;;;;;4230061;28;20214;-76
2022/07/29 03:30:56;;;;;;;1.85;1.13;;;22.70;99.90;;;;;;4229783;28;20210;-76
2022/07/29 03:32:58;;;;;;;1.30;0.98;;;22.70;99.90;;;;;;4229926;28;20255;-76
2022/07/29 03:35:00;;;;;;;2.30;1.17;;;22.70;99.90;;;;;;4229748;28;20217;-76
2022/07/29 03:37:06;;;;;;;3.20;1.40;;;22.70;99.90;;;;;;4230092;28;20248;-76
2022/07/29 03:39:11;;;;;;;2.33;1.10;;;22.70;99.90;;;;;;4230177;28;20213;-76
2022/07/29 03:41:15;;;;;;;1.60;1.17;;;22.70;99.90;;;;;;4230199;28;20222;-76
2022/07/29 03:43:19;;;;;;;2.47;0.90;;;22.70;99.90;;;;;;4229797;28;20291;-76
2022/07/29 03:45:23;;;;;;;2.90;0.95;;;22.70;99.90;;;;;;4230134;28;20657;-76
2022/07/29 03:47:29;;;;;;;2.10;1.10;;;22.60;99.90;;;;;;4229754;28;20210;-76
2022/07/29 03:49:32;;;;;;;2.63;1.15;;;22.60;99.90;;;;;;4230041;28;20264;-76
2022/07/29 03:51:35;;;;;;;1.58;1.20;;;22.60;99.90;;;;;;4229758;28;20607;-76
2022/07/29 03:53:39;;;;;;;2.17;1.30;;;22.70;99.90;;;;;;4229285;28;20217;-76
2022/07/29 03:55:45;;;;;;;1.17;0.93;;;22.60;99.90;;;;;;4229384;28;20206;-76
2022/07/29 03:57:48;;;;;;;2.00;1.00;;;22.70;99.90;;;;;;4229678;28;20247;-76
2022/07/29 03:59:53;;;;;;;1.65;1.08;;;22.60;99.90;;;;;;4229848;28;20214;-76
2022/07/29 04:01:57;;;;;;;1.88;1.13;;;22.60;99.90;;;;;;4229541;28;20590;-76
2022/07/29 04:04:01;;;;;;;1.75;1.15;;;22.60;99.90;;;;;;4229712;28;20209;-76
2022/07/29 04:06:06;;;;;;;1.15;1.05;;;22.60;99.90;;;;;;4229579;28;20740;-76
2022/07/29 04:08:08;;;;;;;1.35;0.90;;;22.60;99.90;;;;;;4229539;28;20217;-76
2022/07/29 04:10:12;;;;;;;1.27;1.10;;;22.60;99.90;;;;;;4229638;28;20266;-76
2022/07/29 04:12:15;;;;;;;1.45;1.02;;;22.60;99.90;;;;;;4229730;28;20205;-76
2022/07/29 04:14:17;;;;;;;1.48;1.17;;;22.60;99.90;;;;;;4229574;28;20266;-76
2022/07/29 04:16:19;;;;;;;1.90;0.90;;;22.60;99.90;;;;;;4229462;28;20260;-76
2022/07/29 04:18:21;;;;;;;2.72;1.20;;;22.60;99.90;;;;;;4229702;28;20295;-76
2022/07/29 04:20:24;;;;;;;2.13;1.33;;;22.60;99.90;;;;;;4229722;28;20213;-76
2022/07/29 04:22:26;;;;;;;1.33;1.00;;;22.60;99.90;;;;;;4229481;28;20291;-76
2022/07/29 04:24:28;;;;;;;1.40;1.10;;;22.60;99.90;;;;;;4229515;28;20259;-80
2022/07/29 04:26:48;;;;;;;1.52;1.10;;;22.60;99.90;;;;;;4229357;28;20239;-79
2022/07/29 04:28:50;;;;;;;1.48;1.15;;;22.60;99.90;;;;;;4229400;28;20730;-80
2022/07/29 04:30:52;;;;;;;2.28;1.20;;;22.60;99.90;;;;;;4229417;28;20210;-79
2022/07/29 04:32:54;;;;;;;1.70;1.15;;;22.60;99.90;;;;;;4229444;28;20214;-80
2022/07/29 04:34:57;;;;;;;2.35;1.00;;;22.60;99.90;;;;;;4229282;28;20255;-80
2022/07/29 04:36:59;;;;;;;2.15;1.10;;;22.60;99.90;;;;;;4229199;28;20217;-80
2022/07/29 04:39:02;;;;;;;1.15;0.95;;;22.60;99.90;;;;;;4229557;28;20222;-80
2022/07/29 04:41:04;;;;;;;2.20;1.13;;;22.60;99.90;;;;;;4229829;28;20279;-80
2022/07/29 04:43:08;;;;;;;3.63;1.20;;;22.60;99.90;;;;;;4228908;28;20255;-80
2022/07/29 04:45:11;;;;;;;2.00;1.10;;;22.60;99.90;;;;;;4229397;28;20271;-79
2022/07/29 04:47:13;;;;;;;2.38;1.60;;;22.60;99.90;;;;;;4230749;28;20213;-80
2022/07/29 04:49:15;;;;;;;1.30;1.13;;;22.60;99.90;;;;;;4232374;28;20218;-80
2022/07/29 04:51:17;;;;;;;2.47;1.15;;;22.60;99.90;;;;;;4232434;28;20214;-80
2022/07/29 04:53:20;;;;;;;2.20;1.25;;;22.60;99.90;;;;;;4232869;28;20214;-80
2022/07/29 04:55:22;;;;;;;1.88;1.20;;;22.60;99.90;;;;;;4232570;28;20217;-80
2022/07/29 04:57:24;;;;;;;3.85;1.23;;;22.60;99.90;;;;;;4232095;28;20254;-80
2022/07/29 04:59:28;;;;;;;1.52;1.17;;;22.60;99.90;;;;;;4232507;28;20347;-80
2022/07/29 05:01:30;;;;;;;1.77;1.08;;;22.60;99.90;;;;;;4232226;28;20619;-79
2022/07/29 05:03:33;;;;;;;1.30;0.85;;;22.60;99.90;;;;;;4232551;28;20739;-80
2022/07/29 05:05:35;;;;;;;1.52;1.10;;;22.60;99.90;;;;;;4232759;28;20286;-80
2022/07/29 05:07:38;;;;;;;2.00;1.10;;;22.60;99.90;;;;;;4232299;28;20259;-80
2022/07/29 05:09:40;;;;;;;1.88;1.02;;;22.60;99.90;;;;;;4232067;28;20270;-80
2022/07/29 05:11:42;;;;;;;0.93;0.85;;;22.60;99.90;;;;;;4231996;28;20214;-80
2022/07/29 05:13:44;;;;;;;1.70;1.05;;;22.60;99.90;;;;;;4232234;28;20221;-80
2022/07/29 05:15:48;;;;;;;1.80;1.20;;;22.60;99.90;;;;;;4232620;28;20241;-80
2022/07/29 05:17:51;;;;;;;1.65;1.10;;;22.60;99.90;;;;;;4232352;28;20210;-80
2022/07/29 05:19:53;;;;;;;2.75;1.48;;;22.60;99.90;;;;;;4232224;28;20615;-80
2022/07/29 05:21:55;;;;;;;1.60;1.00;;;22.50;99.90;;;;;;4232150;28;20221;-80
2022/07/29 05:23:58;;;;;;;1.92;1.10;;;22.60;99.90;;;;;;4231736;28;20230;-80
2022/07/29 05:26:00;;;;;;;1.35;1.00;;;22.50;99.90;;;;;;4232068;28;20611;-80
2022/07/29 05:28:02;;;;;;;5.28;1.33;;;22.60;99.90;;;;;;4232058;28;20354;-80
2022/07/29 05:30:05;;;;;;;2.50;1.15;;;22.60;99.90;;;;;;4232425;28;20210;-80
2022/07/29 05:32:09;;;;;;;2.00;1.33;;;22.60;99.90;;;;;;4231663;28;20258;-80
2022/07/29 05:34:11;;;;;;;2.05;1.35;;;22.60;99.90;;;;;;4231928;28;20259;-80
2022/07/29 05:36:13;;;;;;;2.35;1.27;;;22.60;99.90;;;;;;4231632;28;20243;-80
2022/07/29 05:38:16;;;;;;;2.28;1.15;;;22.50;99.90;;;;;;4231857;28;20218;-80
2022/07/29 05:40:18;;;;;;;3.33;1.30;;;22.60;99.90;;;;;;4231537;28;20262;-80
2022/07/29 05:42:21;;;;;;;1.88;1.02;;;22.60;99.90;;;;;;4231346;28;20279;-80
2022/07/29 05:44:23;;;;;;;2.83;1.63;;;22.60;99.90;;;;;;4231609;28;20267;-81
2022/07/29 05:46:25;;;;;;;2.33;1.20;;;22.60;99.90;;;;;;4231921;28;20213;-80
2022/07/29 05:48:29;;;;;;;1.80;1.25;;;22.60;99.90;;;;;;4231378;28;20210;-80
2022/07/29 05:50:31;;;;;;;2.75;1.10;;;22.60;99.90;;;;;;4231464;28;20213;-80
2022/07/29 05:52:33;;;;;;;1.83;1.05;;;22.60;99.90;;;;;;4231382;28;20217;-80
2022/07/29 05:54:36;;;;;;;2.85;1.40;;;22.60;99.90;;;;;;4231516;28;20278;-80
2022/07/29 05:56:38;;;;;;;1.92;1.17;;;22.50;99.90;;;;;;4231525;28;20209;-80
2022/07/29 05:58:40;;;;;;;2.00;1.13;;;22.60;99.90;;;;;;4230761;28;20240;-80
2022/07/29 06:00:43;;;;;;;2.50;1.27;;;22.60;99.90;;;;;;4231876;28;20217;-80
2022/07/29 06:02:45;;;;;;;2.00;1.42;;;22.60;99.90;;;;;;4231339;28;20221;-80
2022/07/29 06:04:50;;;;;;;1.88;1.15;;;22.50;99.90;;;;;;4231500;28;20218;-80
2022/07/29 06:06:52;;;;;;;2.80;1.38;;;22.60;99.90;;;;;;4231381;28;20217;-80
2022/07/29 06:08:54;;;;;;;1.45;1.10;;;22.60;99.90;;;;;;4231354;28;20266;-80
2022/07/29 06:10:56;;;;;;;2.25;1.35;;;22.60;99.90;;;;;;4231537;28;20218;-80
2022/07/29 06:12:59;;;;;;;2.90;1.23;;;22.60;99.90;;;;;;4231120;28;20622;-80
2022/07/29 06:15:01;;;;;;;1.75;1.20;;;22.60;99.90;;;;;;4231302;28;20665;-80
2022/07/29 06:17:03;;;;;;;1.58;1.10;;;22.60;99.90;;;;;;4231089;28;20218;-80
2022/07/29 06:19:05;;;;;;;2.10;1.20;;;22.60;99.90;;;;;;4231539;28;20217;-80
2022/07/29 06:21:12;;;;;;;2.83;1.35;;;22.60;99.90;;;;;;4230796;28;20213;-80
2022/07/29 06:23:15;;;;;;;1.60;1.23;;;22.60;99.90;;;;;;4231425;28;20226;-80
2022/07/29 06:25:17;;;;;;;2.80;1.15;;;22.60;99.90;;;;;;4230990;28;20213;-80
2022/07/29 06:27:19;;;;;;;1.45;1.33;;;22.60;99.90;;;;;;4230878;28;20217;-80
2022/07/29 06:29:22;;;;;;;1.80;1.30;;;22.60;99.90;;;;;;4230802;28;20209;-80
2022/07/29 06:31:24;;;;;;;1.70;1.23;;;22.60;99.90;;;;;;4230728;28;20263;-80
2022/07/29 06:33:26;;;;;;;1.50;1.20;;;22.60;99.90;;;;;;4231061;28;20263;-80
2022/07/29 06:35:29;;;;;;;1.38;0.93;;;22.60;99.90;;;;;;4231077;28;20214;-80
2022/07/29 06:37:32;;;;;;;3.45;1.20;;;22.60;99.90;;;;;;4230810;28;20271;-80
2022/07/29 06:39:36;;;;;;;2.20;1.40;;;22.60;99.90;;;;;;4230615;28;20210;-80
2022/07/29 06:41:38;;;;;;;1.38;1.15;;;22.60;99.90;;;;;;4230878;28;20658;-80
2022/07/29 06:43:42;;;;;;;1.88;1.20;;;22.60;99.90;;;;;;4230141;28;20285;-80
2022/07/29 06:45:44;;;;;;;1.65;1.20;;;22.60;99.90;;;;;;4231016;28;20578;-80
2022/07/29 06:47:46;;;;;;;3.78;1.63;;;22.60;99.90;;;;;;4230971;28;20636;-80
2022/07/29 06:49:48;;;;;;;1.88;1.02;;;22.60;99.90;;;;;;4230609;28;20266;-80
2022/07/29 06:51:51;;;;;;;2.78;1.25;;;22.60;99.90;;;;;;4230594;28;20266;-80
2022/07/29 06:53:57;;;;;;;1.85;1.10;;;22.60;99.90;;;;;;4230467;28;20239;-80
2022/07/29 06:56:00;;;;;;;1.25;1.10;;;22.60;99.90;;;;;;4230601;28;20255;-80
2022/07/29 06:58:02;;;;;;;1.92;1.40;;;22.60;99.90;;;;;;4230490;28;20218;-80
2022/07/29 07:00:05;;;;;;;2.15;1.38;;;22.60;99.90;;;;;;4230686;28;20222;-80
2022/07/29 07:02:08;;;;;;;2.22;1.30;;;22.60;99.90;;;;;;4230667;28;20270;-81
2022/07/29 07:04:12;;;;;;;1.95;1.30;;;22.70;99.90;;;;;;4230419;28;20234;-81
2022/07/29 07:06:15;;;;;;;2.20;1.15;;;22.70;99.90;;;;;;4230063;28;20615;-81
2022/07/29 07:08:19;;;;;;;2.72;1.27;;;22.70;99.90;;;;;;4230150;28;20624;-80
2022/07/29 07:10:22;;;;;;;2.20;1.30;;;22.70;99.90;;;;;;4229189;28;20222;-80
2022/07/29 07:12:25;;;;;;;3.03;1.60;;;22.70;99.90;;;;;;4230283;28;20267;-80
2022/07/29 07:14:27;;;;;;;2.38;1.60;;;22.70;99.90;;;;;;4230867;28;20263;-81
2022/07/29 07:16:30;;;;;;;1.65;1.38;;;22.70;99.90;;;;;;4230427;28;20718;-80
2022/07/29 07:18:32;;;;;;;1.92;1.35;;;22.70;99.90;;;;;;4230554;28;20263;-80
2022/07/29 07:20:35;;;;;;;2.13;1.23;;;22.70;99.90;;;;;;4230213;28;20221;-80
2022/07/29 07:22:38;;;;;;;4.70;1.52;;;22.70;99.90;;;;;;4230055;28;20218;-80
2022/07/29 07:24:40;;;;;;;2.05;1.38;;;22.70;99.90;;;;;;4229998;28;20283;-80
2022/07/29 07:26:43;;;;;;;1.45;1.25;;;22.70;99.90;;;;;;4230529;28;20206;-80
2022/07/29 07:28:46;;;;;;;2.88;1.17;;;22.70;99.90;;;;;;4230105;28;20630;-80
2022/07/29 07:30:48;;;;;;;2.38;1.40;;;22.70;99.90;;;;;;4229882;28;20259;-80
2022/07/29 07:32:50;;;;;;;2.10;1.20;;;22.70;99.90;;;;;;4229861;28;20613;-81
2022/07/29 07:34:53;;;;;;;1.58;1.10;;;22.70;99.90;;;;;;4229968;28;20209;-80
2022/07/29 07:36:55;;;;;;;3.30;1.25;;;22.70;99.90;;;;;;4230055;28;20258;-80
2022/07/29 07:38:58;;;;;;;2.47;1.55;;;22.70;99.90;;;;;;4229925;28;20218;-80
2022/07/29 07:41:00;;;;;;;2.20;1.45;;;22.70;99.90;;;;;;4230013;28;20209;-80
2022/07/29 07:43:04;;;;;;;2.05;1.20;;;22.70;99.90;;;;;;4229683;28;20238;-80
2022/07/29 07:45:09;;;;;;;2.20;1.35;;;22.70;99.90;;;;;;4230064;28;20233;-80
2022/07/29 07:47:11;;;;;;;1.98;1.20;;;22.70;99.90;;;;;;4229664;28;20258;-80
2022/07/29 07:49:13;;;;;;;1.98;1.30;;;22.70;99.90;;;;;;4229897;28;20213;-80
2022/07/29 07:51:15;;;;;;;2.47;1.17;;;22.70;99.90;;;;;;4229597;28;20218;-80
2022/07/29 07:53:18;;;;;;;2.83;1.20;;;22.70;99.90;;;;;;4229744;28;20209;-80
2022/07/29 07:55:21;;;;;;;2.88;1.48;;;22.70;99.90;;;;;;4229936;28;20271;-80
2022/07/29 07:57:23;;;;;;;2.40;1.30;;;22.70;99.90;;;;;;4229776;28;20665;-80
2022/07/29 07:59:27;;;;;;;1.75;1.02;;;22.70;99.90;;;;;;4229603;28;20209;-80
2022/07/29 08:01:29;;;;;;;1.73;1.30;;;22.70;99.90;;;;;;4229421;28;20217;-80
2022/07/29 08:03:31;;;;;;;2.28;1.35;;;22.70;99.90;;;;;;4229454;28;20214;-80
2022/07/29 08:05:33;;;;;;;2.70;1.48;;;22.70;99.90;;;;;;4229492;28;20234;-80
2022/07/29 08:07:36;;;;;;;2.47;1.23;;;22.70;99.90;;;;;;4229839;28;20619;-80
2022/07/29 08:09:38;;;;;;;1.60;1.20;;;22.80;99.90;;;;;;4229354;28;20373;-81
2022/07/29 08:11:40;;;;;;;1.55;1.10;;;22.80;99.90;;;;;;4229459;28;20255;-80
2022/07/29 08:13:42;;;;;;;2.85;1.30;;;22.70;99.90;;;;;;4229576;28;20213;-80
2022/07/29 08:15:46;;;;;;;3.03;1.40;;;22.70;99.90;;;;;;4229500;28;20210;-80
2022/07/29 08:17:48;;;;;;;2.20;1.30;;;22.70;99.90;;;;;;4229342;28;20218;-80
2022/07/29 08:19:51;;;;;;;1.80;1.00;;;22.70;99.90;;;;;;4229615;28;20262;-80
2022/07/29 08:21:53;;;;;;;1.60;1.05;;;22.80;99.90;;;;;;4230098;28;20213;-80
2022/07/29 08:24:42;;;;;;;3.00;1.30;;;22.70;99.90;;;;;;4232799;28;20214;-80
2022/07/29 08:26:17;;;;;;;2.22;1.35;;;22.80;99.90;;;;;;4232621;28;20213;-80
2022/07/29 08:28:20;;;;;;;2.10;1.63;;;22.70;99.90;;;;;;4232894;28;20267;-80
2022/07/29 08:30:22;;;;;;;2.60;1.30;;;22.80;99.90;;;;;;4233040;28;20218;-80
2022/07/29 08:32:28;;;;;;;1.98;1.48;;;22.70;99.90;;;;;;4232736;28;20221;-81
2022/07/29 08:34:30;;;;;;;1.30;1.17;;;22.80;99.90;;;;;;4232665;28;20255;-80
2022/07/29 08:36:33;;;;;;;1.85;1.17;;;22.70;99.90;;;;;;4232689;28;20619;-80
2022/07/29 08:38:36;;;;;;;1.85;1.33;;;22.80;99.90;;;;;;4232497;28;20218;-80
2022/07/29 08:40:38;;;;;;;2.35;1.30;;;22.80;99.90;;;;;;4232379;28;20670;-80
2022/07/29 08:42:40;;;;;;;2.08;1.20;;;22.80;99.90;;;;;;4232305;28;20285;-80
2022/07/29 08:44:43;;;;;;;1.40;1.20;;;22.80;99.90;;;;;;4232998;28;20238;-80
2022/07/29 08:46:45;;;;;;;2.47;1.30;;;22.80;99.90;;;;;;4232912;28;20267;-80
2022/07/29 08:48:49;;;;;;;2.08;1.13;;;22.80;99.90;;;;;;4232488;28;20213;-80
2022/07/29 08:50:55;;;;;;;4.32;1.42;;;22.80;99.90;;;;;;4232117;28;20239;-80
2022/07/29 08:52:57;;;;;;;2.35;1.10;;;22.80;99.90;;;;;;4232651;28;20266;-80
2022/07/29 08:55:00;;;;;;;1.60;1.23;;;22.80;99.90;;;;;;4232447;28;20218;-80
2022/07/29 08:57:03;;;;;;;2.60;1.38;;;22.80;99.90;;;;;;4232832;28;20628;-80
2022/07/29 08:59:08;;;;;;;2.03;1.20;;;22.80;99.90;;;;;;4232518;28;20279;-81
2022/07/29 09:01:12;;;;;;;2.60;1.80;;;22.80;99.90;;;;;;4232722;28;20225;-80
2022/07/29 09:03:19;;;;;;;3.13;1.45;;;22.90;99.90;;;;;;4232557;28;20243;-80
2022/07/29 09:05:24;;;;;;;2.08;1.45;;;22.80;99.90;;;;;;4232653;28;20754;-80
2022/07/29 09:07:27;;;;;;;1.45;1.20;;;22.90;99.90;;;;;;4232171;28;20251;-80
2022/07/29 09:09:29;;;;;;;2.75;1.25;;;22.80;99.90;;;;;;4232067;28;20214;-80
2022/07/29 09:11:33;;;;;;;1.67;1.20;;;22.90;99.90;;;;;;4232207;28;20213;-80
2022/07/29 09:13:35;;;;;;;2.08;1.42;;;22.90;99.90;;;;;;4232056;28;20674;-81
2022/07/29 09:15:38;;;;;;;1.63;1.10;;;22.90;99.90;;;;;;4232339;28;20670;-80
2022/07/29 09:17:41;;;;;;;1.33;0.90;;;22.90;99.90;;;;;;4232420;28;20206;-80
2022/07/29 09:19:44;;;;;;;1.13;1.00;;;22.90;99.90;;;;;;4232419;28;20725;-80
2022/07/29 09:21:59;;;;;;;2.72;1.30;;;22.90;99.90;;;;;;4232171;28;20259;-80
2022/07/29 09:24:07;;;;;;;1.83;1.20;;;22.90;99.90;;;;;;4232340;28;20275;-80
2022/07/29 09:26:09;;;;;;;2.88;1.33;;;22.90;99.90;;;;;;4231745;28;20262;-80
2022/07/29 09:28:14;;;;;;;1.27;1.17;;;22.90;99.90;;;;;;4232420;28;20222;-80
2022/07/29 09:30:16;;;;;;;1.92;1.20;;;22.90;99.90;;;;;;4231818;28;20210;-80
2022/07/29 09:32:18;;;;;;;1.40;1.20;;;22.90;99.90;;;;;;4232399;28;20217;-80
2022/07/29 09:34:25;;;;;;;1.80;1.15;;;23.00;99.90;;;;;;4230542;28;20217;-80
2022/07/29 09:36:27;;;;;;;1.58;1.20;;;23.00;99.90;;;;;;4232265;28;20214;-81
2022/07/29 09:38:32;;;;;;;1.75;1.20;;;23.00;99.90;;;;;;4232022;28;20597;-80
2022/07/29 09:40:34;;;;;;;2.15;1.35;;;23.00;99.90;;;;;;4231684;28;20210;-81
2022/07/29 09:42:37;;;;;;;2.00;1.17;;;22.90;99.90;;;;;;4231703;28;20225;-81
2022/07/29 09:44:44;;;;;;;3.15;1.33;;;23.00;99.90;;;;;;4231738;28;20217;-80
2022/07/29 09:47:05;;;;;;;2.25;1.40;;;23.00;99.90;;;;;;4231545;28;20217;-81
2022/07/29 09:49:09;;;;;;;2.65;1.17;;;23.00;99.90;;;;;;4231817;28;21025;-80
2022/07/29 09:51:21;;;;;;;1.98;1.40;;;23.00;99.90;;;;;;4232159;28;20267;-81
2022/07/29 09:53:34;;;;;;;1.27;1.17;;;23.00;99.90;;;;;;4231275;28;20262;-80
2022/07/29 09:55:48;;;;;;;1.67;1.10;;;23.10;99.90;;;;;;4231420;28;20205;-80
2022/07/29 09:57:50;;;;;;;1.95;1.20;;;23.00;99.90;;;;;;4231942;28;20278;-80
2022/07/29 09:59:59;;;;;;;1.70;1.20;;;23.10;99.90;;;;;;4231575;28;20726;-80
2022/07/29 10:02:02;;;;;;;1.20;1.00;;;23.10;99.90;;;;;;4231809;28;20217;-80
2022/07/29 10:04:05;;;;;;;1.45;1.35;;;23.10;99.90;;;;;;4231631;28;20205;-80
2022/07/29 10:06:09;;;;;;;1.65;1.17;;;23.00;99.90;;;;;;4231312;28;20291;-81
2022/07/29 10:08:13;;;;;;;1.45;1.10;;;23.10;99.90;;;;;;4231571;28;20209;-80
2022/07/29 10:10:24;;;;;;;1.30;1.05;;;23.10;99.90;;;;;;4231498;28;20270;-81
2022/07/29 10:12:27;;;;;;;2.40;1.17;;;23.10;99.90;;;;;;4231933;28;20358;-80
2022/07/29 10:14:30;;;;;;;1.90;1.10;;;23.10;99.90;;;;;;4231527;28;20213;-80
2022/07/29 10:16:33;;;;;;;2.47;1.38;;;23.10;99.90;;;;;;4231823;28;20217;-80
2022/07/29 10:18:36;;;;;;;2.35;1.30;;;23.10;99.90;;;;;;4231361;28;20213;-81
2022/07/29 10:20:39;;;;;;;1.45;1.15;;;23.10;99.90;;;;;;4231127;28;20270;-81
2022/07/29 10:22:43;;;;;;;2.22;1.20;;;23.10;99.90;;;;;;4231870;28;20263;-80
2022/07/29 10:24:46;;;;;;;1.60;1.20;;;23.10;99.90;;;;;;4231363;28;20669;-81
2022/07/29 10:26:50;;;;;;;1.70;1.30;;;23.20;99.90;;;;;;4230960;28;20290;-80
2022/07/29 10:28:53;;;;;;;2.40;1.30;;;23.20;99.90;;;;;;4230742;28;20249;-80
2022/07/29 10:31:02;;;;;;;1.63;1.15;;;23.10;99.90;;;;;;4230688;28;20214;-80
2022/07/29 10:33:25;;;;;;;1.83;1.35;;;23.10;99.90;;;;;;4231214;28;20212;-80
2022/07/29 10:35:55;;;;;;;2.65;1.30;;;23.20;99.90;;;;;;4230645;28;20239;-80
2022/07/29 10:38:15;;;;;;;1.52;1.35;;;23.20;99.90;;;;;;4230328;28;20286;-81
2022/07/29 10:42:47;;;;;;;1.65;1.23;;;23.20;99.90;;;;;;4230934;28;20694;-80
2022/07/29 10:44:51;;;;;;;1.77;1.15;;;23.20;99.90;;;;;;4230528;28;20221;-80
2022/07/29 10:46:54;;;;;;;1.10;1.00;;;23.20;99.90;;;;;;4230776;28;20237;-81
2022/07/29 10:49:09;;;;;;;1.67;1.23;;;23.20;99.90;;;;;;4230582;28;20239;-80
2022/07/29 10:51:13;;;;;;;1.20;1.10;;;23.20;99.90;;;;;;4230595;28;20673;-80
2022/07/29 10:53:15;;;;;;;1.75;1.13;;;23.20;99.90;;;;;;4230442;28;20738;-80
2022/07/29 10:55:33;;;;;;;2.42;1.40;;;23.20;99.90;;;;;;4230677;28;20703;-80